sensor_id;sensor_type;location;lat;lon;timestamp;pressure;altitude;pressure_sealevel;temperature;humidity
74627;BME280;63132;52.268;5.192;2023-12-20T00:01:34;101384.09;;;7.35;80.98
74627;BME280;63132;52.268;5.192;2023-12-20T00:04:00;101389.31;;;7.40;81.16
74627;BME280;63132;52.268;5.192;2023-12-20T00:06:25;101383.97;;;7.28;81.18
74627;BME280;63132;52.268;5.192;2023-12-20T00:08:50;101379.94;;;7.21;81.03
74627;BME280;63132;52.268;5.192;2023-12-20T00:11:16;101385.19;;;7.07;81.34
74627;BME280;63132;52.268;5.192;2023-12-20T00:13:41;101378.84;;;7.03;81.83
74627;BME280;63132;52.268;5.192;2023-12-20T00:16:06;101373.03;;;7.08;81.99
74627;BME280;63132;52.268;5.192;2023-12-20T00:18:32;101378.28;;;6.94;81.63
74627;BME280;63132;52.268;5.192;2023-12-20T00:20:57;101374.13;;;7.04;82.00
74627;BME280;63132;52.268;5.192;2023-12-20T00:23:22;101379.56;;;7.00;81.46
74627;BME280;63132;52.268;5.192;2023-12-20T00:25:48;101380.81;;;6.83;81.90
74627;BME280;63132;52.268;5.192;2023-12-20T00:28:14;101375.97;;;6.96;82.14
74627;BME280;63132;52.268;5.192;2023-12-20T00:30:39;101380.50;;;7.08;82.32
74627;BME280;63132;52.268;5.192;2023-12-20T00:33:04;101377.00;;;7.11;82.38
74627;BME280;63132;52.268;5.192;2023-12-20T00:35:30;101379.69;;;7.07;81.64
74627;BME280;63132;52.268;5.192;2023-12-20T00:37:55;101374.91;;;7.04;81.55
74627;BME280;63132;52.268;5.192;2023-12-20T00:40:20;101376.75;;;6.97;81.42
74627;BME280;63132;52.268;5.192;2023-12-20T00:42:46;101372.00;;;6.93;81.79
74627;BME280;63132;52.268;5.192;2023-12-20T00:45:12;101364.81;;;6.89;81.67
74627;BME280;63132;52.268;5.192;2023-12-20T00:47:37;101380.22;;;6.71;82.30
74627;BME280;63132;52.268;5.192;2023-12-20T00:50:03;101379.47;;;6.74;82.25
74627;BME280;63132;52.268;5.192;2023-12-20T00:52:28;101372.19;;;6.85;82.01
74627;BME280;63132;52.268;5.192;2023-12-20T00:54:54;101365.22;;;6.91;81.76
74627;BME280;63132;52.268;5.192;2023-12-20T00:57:19;101358.69;;;6.99;81.54
74627;BME280;63132;52.268;5.192;2023-12-20T00:59:44;101358.78;;;7.03;81.11
74627;BME280;63132;52.268;5.192;2023-12-20T01:02:10;101351.91;;;6.93;81.15
74627;BME280;63132;52.268;5.192;2023-12-20T01:04:35;101358.22;;;6.93;81.43
74627;BME280;63132;52.268;5.192;2023-12-20T01:07:00;101362.72;;;6.82;81.64
74627;BME280;63132;52.268;5.192;2023-12-20T01:09:26;101376.81;;;7.00;81.97
74627;BME280;63132;52.268;5.192;2023-12-20T01:11:53;101370.81;;;6.94;82.25
74627;BME280;63132;52.268;5.192;2023-12-20T01:14:19;101377.38;;;7.09;82.64
74627;BME280;63132;52.268;5.192;2023-12-20T01:16:44;101373.03;;;7.31;82.55
74627;BME280;63132;52.268;5.192;2023-12-20T01:19:10;101366.59;;;7.46;81.60
74627;BME280;63132;52.268;5.192;2023-12-20T01:21:35;101367.31;;;7.43;81.89
74627;BME280;63132;52.268;5.192;2023-12-20T01:24:00;101369.41;;;7.50;81.52
74627;BME280;63132;52.268;5.192;2023-12-20T01:26:26;101366.63;;;7.50;81.59
74627;BME280;63132;52.268;5.192;2023-12-20T01:28:51;101362.28;;;7.49;81.31
74627;BME280;63132;52.268;5.192;2023-12-20T01:31:17;101360.16;;;7.39;81.48
74627;BME280;63132;52.268;5.192;2023-12-20T01:33:45;101350.63;;;7.33;81.52
74627;BME280;63132;52.268;5.192;2023-12-20T01:36:11;101360.97;;;7.39;81.08
74627;BME280;63132;52.268;5.192;2023-12-20T01:38:36;101360.44;;;7.30;80.93
74627;BME280;63132;52.268;5.192;2023-12-20T01:41:02;101362.84;;;7.35;81.40
74627;BME280;63132;52.268;5.192;2023-12-20T01:43:27;101359.53;;;7.49;81.50
74627;BME280;63132;52.268;5.192;2023-12-20T01:45:52;101366.59;;;7.46;81.06
74627;BME280;63132;52.268;5.192;2023-12-20T01:48:19;101356.97;;;7.37;81.00
74627;BME280;63132;52.268;5.192;2023-12-20T01:50:45;101356.50;;;7.31;80.82
74627;BME280;63132;52.268;5.192;2023-12-20T01:53:12;101354.09;;;7.30;81.20
74627;BME280;63132;52.268;5.192;2023-12-20T01:55:40;101361.75;;;7.40;81.20
74627;BME280;63132;52.268;5.192;2023-12-20T01:58:07;101360.88;;;7.59;81.38
74627;BME280;63132;52.268;5.192;2023-12-20T02:00:34;101350.28;;;7.61;81.11
74627;BME280;63132;52.268;5.192;2023-12-20T02:03:00;101358.44;;;7.80;80.83
74627;BME280;63132;52.268;5.192;2023-12-20T02:05:26;101357.22;;;7.77;79.96
74627;BME280;63132;52.268;5.192;2023-12-20T02:07:53;101365.53;;;7.81;79.77
74627;BME280;63132;52.268;5.192;2023-12-20T02:10:18;101355.56;;;7.73;79.79
74627;BME280;63132;52.268;5.192;2023-12-20T02:12:43;101354.88;;;7.53;80.47
74627;BME280;63132;52.268;5.192;2023-12-20T02:15:09;101354.50;;;7.55;80.32
74627;BME280;63132;52.268;5.192;2023-12-20T02:17:35;101350.28;;;7.61;80.59
74627;BME280;63132;52.268;5.192;2023-12-20T02:20:00;101346.28;;;7.58;80.17
74627;BME280;63132;52.268;5.192;2023-12-20T02:22:26;101345.19;;;7.63;80.51
74627;BME280;63132;52.268;5.192;2023-12-20T02:24:51;101348.31;;;7.61;80.23
74627;BME280;63132;52.268;5.192;2023-12-20T02:27:18;101343.97;;;7.60;80.16
74627;BME280;63132;52.268;5.192;2023-12-20T02:29:46;101341.63;;;7.62;80.36
74627;BME280;63132;52.268;5.192;2023-12-20T02:32:12;101337.59;;;7.83;80.20
74627;BME280;63132;52.268;5.192;2023-12-20T02:34:37;101341.09;;;7.80;79.90
74627;BME280;63132;52.268;5.192;2023-12-20T02:37:03;101340.03;;;7.88;79.62
74627;BME280;63132;52.268;5.192;2023-12-20T02:39:28;101344.25;;;7.82;79.62
74627;BME280;63132;52.268;5.192;2023-12-20T02:41:53;101333.63;;;7.80;80.11
74627;BME280;63132;52.268;5.192;2023-12-20T02:44:19;101342.78;;;7.88;79.82
74627;BME280;63132;52.268;5.192;2023-12-20T02:46:44;101341.50;;;7.82;79.47
74627;BME280;63132;52.268;5.192;2023-12-20T02:49:09;101345.03;;;7.78;79.41
74627;BME280;63132;52.268;5.192;2023-12-20T02:51:35;101331.72;;;7.84;79.57
74627;BME280;63132;52.268;5.192;2023-12-20T02:54:03;101326.34;;;7.95;79.02
74627;BME280;63132;52.268;5.192;2023-12-20T02:56:28;101329.84;;;7.92;79.11
74627;BME280;63132;52.268;5.192;2023-12-20T02:58:53;101316.56;;;8.01;78.86
74627;BME280;63132;52.268;5.192;2023-12-20T03:01:19;101297.25;;;8.01;78.36
74627;BME280;63132;52.268;5.192;2023-12-20T03:03:44;101300.53;;;8.10;77.83
74627;BME280;63132;52.268;5.192;2023-12-20T03:06:10;101309.88;;;8.02;77.87
74627;BME280;63132;52.268;5.192;2023-12-20T03:08:35;101313.50;;;8.06;77.39
74627;BME280;63132;52.268;5.192;2023-12-20T03:11:00;101315.41;;;8.02;77.13
74627;BME280;63132;52.268;5.192;2023-12-20T03:13:26;101313.81;;;8.01;77.35
74627;BME280;63132;52.268;5.192;2023-12-20T03:15:51;101305.84;;;7.96;77.49
74627;BME280;63132;52.268;5.192;2023-12-20T03:18:16;101301.28;;;8.07;76.93
74627;BME280;63132;52.268;5.192;2023-12-20T03:20:43;101300.88;;;8.05;77.04
74627;BME280;63132;52.268;5.192;2023-12-20T03:23:08;101302.16;;;8.15;77.00
74627;BME280;63132;52.268;5.192;2023-12-20T03:25:34;101294.31;;;8.17;76.19
74627;BME280;63132;52.268;5.192;2023-12-20T03:27:59;101305.34;;;8.17;75.98
74627;BME280;63132;52.268;5.192;2023-12-20T03:30:24;101300.66;;;8.21;75.86
74627;BME280;63132;52.268;5.192;2023-12-20T03:32:49;101304.53;;;8.16;76.08
74627;BME280;63132;52.268;5.192;2023-12-20T03:35:15;101298.28;;;7.89;76.18
74627;BME280;63132;52.268;5.192;2023-12-20T03:37:41;101307.38;;;7.90;76.62
74627;BME280;63132;52.268;5.192;2023-12-20T03:40:06;101308.59;;;7.92;76.08
74627;BME280;63132;52.268;5.192;2023-12-20T03:42:32;101309.16;;;8.05;76.16
74627;BME280;63132;52.268;5.192;2023-12-20T03:44:57;101308.06;;;8.13;75.94
74627;BME280;63132;52.268;5.192;2023-12-20T03:47:22;101315.50;;;8.09;75.71
74627;BME280;63132;52.268;5.192;2023-12-20T03:49:48;101326.38;;;8.28;75.49
74627;BME280;63132;52.268;5.192;2023-12-20T03:52:13;101333.31;;;8.15;75.39
74627;BME280;63132;52.268;5.192;2023-12-20T03:54:40;101335.75;;;8.20;75.74
74627;BME280;63132;52.268;5.192;2023-12-20T03:57:07;101319.69;;;8.29;75.33
74627;BME280;63132;52.268;5.192;2023-12-20T03:59:37;101318.22;;;8.36;74.81
74627;BME280;63132;52.268;5.192;2023-12-20T04:02:03;101312.91;;;8.23;75.35
74627;BME280;63132;52.268;5.192;2023-12-20T04:04:28;101313.91;;;8.38;75.45
74627;BME280;63132;52.268;5.192;2023-12-20T04:06:54;101309.94;;;8.36;75.50
74627;BME280;63132;52.268;5.192;2023-12-20T04:09:19;101302.53;;;8.43;75.29
74627;BME280;63132;52.268;5.192;2023-12-20T04:11:44;101303.94;;;8.33;75.62
74627;BME280;63132;52.268;5.192;2023-12-20T04:14:10;101296.22;;;8.43;74.93
74627;BME280;63132;52.268;5.192;2023-12-20T04:16:35;101304.44;;;8.39;75.09
74627;BME280;63132;52.268;5.192;2023-12-20T04:19:00;101308.09;;;8.47;74.55
74627;BME280;63132;52.268;5.192;2023-12-20T04:21:26;101302.16;;;8.45;74.48
74627;BME280;63132;52.268;5.192;2023-12-20T04:23:51;101296.47;;;8.64;74.00
74627;BME280;63132;52.268;5.192;2023-12-20T04:26:16;101290.41;;;8.55;74.21
74627;BME280;63132;52.268;5.192;2023-12-20T04:28:42;101280.69;;;8.65;73.70
74627;BME280;63132;52.268;5.192;2023-12-20T04:31:08;101290.16;;;8.67;73.66
74627;BME280;63132;52.268;5.192;2023-12-20T04:33:33;101283.00;;;8.63;73.67
74627;BME280;63132;52.268;5.192;2023-12-20T04:35:58;101294.03;;;8.59;73.64
74627;BME280;63132;52.268;5.192;2023-12-20T04:38:25;101293.25;;;8.62;73.55
74627;BME280;63132;52.268;5.192;2023-12-20T04:40:50;101288.00;;;8.87;72.93
74627;BME280;63132;52.268;5.192;2023-12-20T04:43:15;101299.09;;;8.94;72.65
74627;BME280;63132;52.268;5.192;2023-12-20T04:45:41;101297.00;;;8.80;73.11
74627;BME280;63132;52.268;5.192;2023-12-20T04:48:06;101282.34;;;8.73;73.31
74627;BME280;63132;52.268;5.192;2023-12-20T04:50:31;101280.78;;;8.79;73.40
74627;BME280;63132;52.268;5.192;2023-12-20T04:52:57;101274.84;;;8.73;73.11
74627;BME280;63132;52.268;5.192;2023-12-20T04:55:22;101276.09;;;8.79;73.16
74627;BME280;63132;52.268;5.192;2023-12-20T04:57:47;101277.63;;;8.77;72.87
74627;BME280;63132;52.268;5.192;2023-12-20T05:00:13;101275.66;;;8.77;72.42
74627;BME280;63132;52.268;5.192;2023-12-20T05:02:40;101280.44;;;8.80;72.68
74627;BME280;63132;52.268;5.192;2023-12-20T05:05:06;101277.25;;;8.78;73.07
74627;BME280;63132;52.268;5.192;2023-12-20T05:07:32;101286.63;;;8.70;72.61
74627;BME280;63132;52.268;5.192;2023-12-20T05:09:58;101280.00;;;8.78;72.92
74627;BME280;63132;52.268;5.192;2023-12-20T05:12:23;101284.84;;;8.88;72.75
74627;BME280;63132;52.268;5.192;2023-12-20T05:14:48;101278.16;;;8.90;72.34
74627;BME280;63132;52.268;5.192;2023-12-20T05:17:14;101300.16;;;8.82;72.76
74627;BME280;63132;52.268;5.192;2023-12-20T05:19:39;101292.75;;;8.94;72.30
74627;BME280;63132;52.268;5.192;2023-12-20T05:22:04;101292.75;;;8.90;72.41
74627;BME280;63132;52.268;5.192;2023-12-20T05:24:29;101292.41;;;8.99;72.22
74627;BME280;63132;52.268;5.192;2023-12-20T05:26:55;101284.66;;;8.71;72.49
74627;BME280;63132;52.268;5.192;2023-12-20T05:29:20;101283.63;;;8.86;72.90
74627;BME280;63132;52.268;5.192;2023-12-20T05:31:45;101273.94;;;9.06;72.30
74627;BME280;63132;52.268;5.192;2023-12-20T05:34:11;101265.97;;;8.94;72.43
74627;BME280;63132;52.268;5.192;2023-12-20T05:36:37;101272.41;;;9.12;72.08
74627;BME280;63132;52.268;5.192;2023-12-20T05:39:02;101265.91;;;8.87;72.47
74627;BME280;63132;52.268;5.192;2023-12-20T05:41:29;101269.13;;;9.00;71.88
74627;BME280;63132;52.268;5.192;2023-12-20T05:43:55;101272.41;;;9.16;71.98
74627;BME280;63132;52.268;5.192;2023-12-20T05:46:20;101272.28;;;8.95;71.93
74627;BME280;63132;52.268;5.192;2023-12-20T05:48:46;101261.19;;;8.91;72.33
74627;BME280;63132;52.268;5.192;2023-12-20T05:51:12;101262.09;;;9.06;72.27
74627;BME280;63132;52.268;5.192;2023-12-20T05:53:38;101275.50;;;9.04;71.91
74627;BME280;63132;52.268;5.192;2023-12-20T05:56:03;101285.72;;;9.00;72.27
74627;BME280;63132;52.268;5.192;2023-12-20T05:58:29;101272.41;;;9.09;72.32
74627;BME280;63132;52.268;5.192;2023-12-20T06:00:54;101278.78;;;9.20;71.69
74627;BME280;63132;52.268;5.192;2023-12-20T06:03:19;101273.53;;;9.04;72.07
74627;BME280;63132;52.268;5.192;2023-12-20T06:05:45;101273.53;;;9.04;72.25
74627;BME280;63132;52.268;5.192;2023-12-20T06:08:13;101277.19;;;9.19;71.89
74627;BME280;63132;52.268;5.192;2023-12-20T06:10:39;101272.41;;;9.16;71.77
74627;BME280;63132;52.268;5.192;2023-12-20T06:13:04;101261.38;;;9.16;71.90
74627;BME280;63132;52.268;5.192;2023-12-20T06:15:31;101262.94;;;9.10;71.61
74627;BME280;63132;52.268;5.192;2023-12-20T06:17:57;101250.41;;;9.27;71.37
74627;BME280;63132;52.268;5.192;2023-12-20T06:20:22;101250.59;;;9.00;71.81
74627;BME280;63132;52.268;5.192;2023-12-20T06:22:47;101248.84;;;9.26;71.49
74627;BME280;63132;52.268;5.192;2023-12-20T06:25:13;101252.28;;;9.15;71.58
74627;BME280;63132;52.268;5.192;2023-12-20T06:27:38;101269.06;;;9.40;70.98
74627;BME280;63132;52.268;5.192;2023-12-20T06:30:04;101263.09;;;9.31;71.49
74627;BME280;63132;52.268;5.192;2023-12-20T06:32:29;101262.28;;;9.31;70.81
74627;BME280;63132;52.268;5.192;2023-12-20T06:34:55;101262.31;;;9.34;70.88
74627;BME280;63132;52.268;5.192;2023-12-20T06:37:20;101263.88;;;9.32;71.50
74627;BME280;63132;52.268;5.192;2023-12-20T06:39:46;101259.19;;;9.39;71.22
74627;BME280;63132;52.268;5.192;2023-12-20T06:42:12;101262.19;;;9.17;71.18
74627;BME280;63132;52.268;5.192;2023-12-20T06:44:38;101260.31;;;9.31;71.50
74627;BME280;63132;52.268;5.192;2023-12-20T06:47:04;101256.72;;;9.27;71.13
74627;BME280;63132;52.268;5.192;2023-12-20T06:49:29;101252.47;;;9.40;71.41
74627;BME280;63132;52.268;5.192;2023-12-20T06:51:55;101264.19;;;9.23;71.77
74627;BME280;63132;52.268;5.192;2023-12-20T06:54:20;101251.56;;;9.22;71.44
74627;BME280;63132;52.268;5.192;2023-12-20T06:56:45;101247.28;;;9.32;72.01
74627;BME280;63132;52.268;5.192;2023-12-20T06:59:11;101261.50;;;9.34;71.85
74627;BME280;63132;52.268;5.192;2023-12-20T07:01:36;101261.56;;;9.41;72.51
74627;BME280;63132;52.268;5.192;2023-12-20T07:04:02;101254.47;;;9.40;71.30
74627;BME280;63132;52.268;5.192;2023-12-20T07:06:27;101248.97;;;9.51;71.66
74627;BME280;63132;52.268;5.192;2023-12-20T07:08:52;101250.38;;;9.23;72.31
74627;BME280;63132;52.268;5.192;2023-12-20T07:11:18;101256.38;;;9.32;71.99
74627;BME280;63132;52.268;5.192;2023-12-20T07:13:43;101244.78;;;9.16;72.39
74627;BME280;63132;52.268;5.192;2023-12-20T07:16:08;101246.56;;;9.46;71.76
74627;BME280;63132;52.268;5.192;2023-12-20T07:18:34;101231.41;;;9.18;72.03
74627;BME280;63132;52.268;5.192;2023-12-20T07:20:59;101229.78;;;9.13;72.30
74627;BME280;63132;52.268;5.192;2023-12-20T07:23:24;101231.13;;;9.37;72.48
74627;BME280;63132;52.268;5.192;2023-12-20T07:25:51;101226.03;;;9.39;71.82
74627;BME280;63132;52.268;5.192;2023-12-20T07:28:16;101218.94;;;9.46;71.61
74627;BME280;63132;52.268;5.192;2023-12-20T07:30:41;101215.75;;;9.43;71.62
74627;BME280;63132;52.268;5.192;2023-12-20T07:33:07;101212.59;;;9.41;71.62
74627;BME280;63132;52.268;5.192;2023-12-20T07:35:34;101220.41;;;9.25;72.55
74627;BME280;63132;52.268;5.192;2023-12-20T07:37:59;101223.06;;;9.11;72.70
74627;BME280;63132;52.268;5.192;2023-12-20T07:40:25;101233.34;;;9.10;72.66
74627;BME280;63132;52.268;5.192;2023-12-20T07:42:50;101240.28;;;9.52;71.90
74627;BME280;63132;52.268;5.192;2023-12-20T07:45:15;101241.03;;;9.42;71.62
74627;BME280;63132;52.268;5.192;2023-12-20T07:47:40;101242.59;;;9.39;72.12
74627;BME280;63132;52.268;5.192;2023-12-20T07:50:06;101244.97;;;9.44;72.09
74627;BME280;63132;52.268;5.192;2023-12-20T07:52:31;101246.50;;;9.31;72.37
74627;BME280;63132;52.268;5.192;2023-12-20T07:54:57;101249.66;;;9.33;72.27
74627;BME280;63132;52.268;5.192;2023-12-20T07:57:23;101260.69;;;9.30;72.40
74627;BME280;63132;52.268;5.192;2023-12-20T07:59:49;101257.19;;;9.36;72.34
74627;BME280;63132;52.268;5.192;2023-12-20T08:02:14;101266.25;;;9.37;72.09
74627;BME280;63132;52.268;5.192;2023-12-20T08:04:40;101264.31;;;9.41;72.11
74627;BME280;63132;52.268;5.192;2023-12-20T08:07:06;101268.72;;;9.49;71.70
74627;BME280;63132;52.268;5.192;2023-12-20T08:09:31;101275.88;;;9.54;71.27
74627;BME280;63132;52.268;5.192;2023-12-20T08:11:58;101269.13;;;9.51;71.24
74627;BME280;63132;52.268;5.192;2023-12-20T08:14:24;101266.00;;;9.56;71.69
74627;BME280;63132;52.268;5.192;2023-12-20T08:16:50;101266.41;;;9.55;71.17
74627;BME280;63132;52.268;5.192;2023-12-20T08:19:15;101264.41;;;9.55;71.25
74627;BME280;63132;52.268;5.192;2023-12-20T08:21:40;101260.03;;;9.51;70.92
74627;BME280;63132;52.268;5.192;2023-12-20T08:24:06;101257.72;;;9.60;70.72
74627;BME280;63132;52.268;5.192;2023-12-20T08:26:32;101248.22;;;9.61;71.24
74627;BME280;63132;52.268;5.192;2023-12-20T08:28:58;101251.38;;;9.56;71.28
74627;BME280;63132;52.268;5.192;2023-12-20T08:31:23;101246.59;;;9.53;71.04
74627;BME280;63132;52.268;5.192;2023-12-20T08:33:49;101248.22;;;9.61;70.97
74627;BME280;63132;52.268;5.192;2023-12-20T08:36:14;101257.63;;;9.46;71.57
74627;BME280;63132;52.268;5.192;2023-12-20T08:38:40;101249.03;;;9.58;71.04
74627;BME280;63132;52.268;5.192;2023-12-20T08:41:06;101251.44;;;9.66;71.15
74627;BME280;63132;52.268;5.192;2023-12-20T08:43:32;101246.69;;;9.67;71.46
74627;BME280;63132;52.268;5.192;2023-12-20T08:45:57;101250.25;;;9.64;71.46
74627;BME280;63132;52.268;5.192;2023-12-20T08:48:23;101256.88;;;9.49;71.60
74627;BME280;63132;52.268;5.192;2023-12-20T08:50:48;101248.28;;;9.68;71.37
74627;BME280;63132;52.268;5.192;2023-12-20T08:53:15;101260.16;;;9.72;71.28
74627;BME280;63132;52.268;5.192;2023-12-20T08:55:41;101253.84;;;9.75;71.39
74627;BME280;63132;52.268;5.192;2023-12-20T08:58:06;101260.97;;;9.76;71.57
74627;BME280;63132;52.268;5.192;2023-12-20T09:00:36;101238.84;;;9.76;71.58
74627;BME280;63132;52.268;5.192;2023-12-20T09:03:02;101249.97;;;9.83;71.02
74627;BME280;63132;52.268;5.192;2023-12-20T09:05:27;101260.97;;;9.76;71.00
74627;BME280;63132;52.268;5.192;2023-12-20T09:07:53;101250.00;;;9.94;71.00
74627;BME280;63132;52.268;5.192;2023-12-20T09:10:19;101256.25;;;9.80;71.27
74627;BME280;63132;52.268;5.192;2023-12-20T09:12:49;101240.41;;;9.70;71.11
74627;BME280;63132;52.268;5.192;2023-12-20T09:15:15;101252.25;;;9.70;70.70
74627;BME280;63132;52.268;5.192;2023-12-20T09:17:41;101243.69;;;10.01;69.63
74627;BME280;63132;52.268;5.192;2023-12-20T09:20:07;101247.97;;;9.87;69.59
74627;BME280;63132;52.268;5.192;2023-12-20T09:22:34;101232.63;;;10.01;69.67
74627;BME280;63132;52.268;5.192;2023-12-20T09:24:59;101240.53;;;9.98;70.15
74627;BME280;63132;52.268;5.192;2023-12-20T09:27:25;101243.69;;;10.01;69.66
74627;BME280;63132;52.268;5.192;2023-12-20T09:29:50;101250.75;;;9.87;69.64
74627;BME280;63132;52.268;5.192;2023-12-20T09:32:16;101242.47;;;9.94;70.13
74627;BME280;63132;52.268;5.192;2023-12-20T09:34:41;101251.16;;;9.93;70.05
74627;BME280;63132;52.268;5.192;2023-12-20T09:37:07;101250.03;;;10.12;69.37
74627;BME280;63132;52.268;5.192;2023-12-20T09:39:33;101256.28;;;9.87;70.12
74627;BME280;63132;52.268;5.192;2023-12-20T09:42:03;101244.09;;;10.03;69.64
74627;BME280;63132;52.268;5.192;2023-12-20T09:44:30;101249.25;;;10.08;70.09
74627;BME280;63132;52.268;5.192;2023-12-20T09:46:57;101252.00;;;10.01;70.10
74627;BME280;63132;52.268;5.192;2023-12-20T09:49:23;101255.25;;;10.27;69.51
74627;BME280;63132;52.268;5.192;2023-12-20T09:51:50;101245.78;;;10.29;69.44
74627;BME280;63132;52.268;5.192;2023-12-20T09:54:19;101256.06;;;10.28;69.12
74627;BME280;63132;52.268;5.192;2023-12-20T09:56:45;101258.78;;;10.14;69.69
74627;BME280;63132;52.268;5.192;2023-12-20T09:59:11;101264.38;;;10.28;69.34
74627;BME280;63132;52.268;5.192;2023-12-20T10:01:38;101258.78;;;10.21;69.15
74627;BME280;63132;52.268;5.192;2023-12-20T10:04:06;101254.03;;;10.18;68.99
74627;BME280;63132;52.268;5.192;2023-12-20T10:06:41;101258.78;;;10.14;68.63
74627;BME280;63132;52.268;5.192;2023-12-20T10:09:07;101267.91;;;10.25;68.29
74627;BME280;63132;52.268;5.192;2023-12-20T10:11:32;101272.34;;;10.44;68.17
74627;BME280;63132;52.268;5.192;2023-12-20T10:14:01;101268.34;;;10.41;68.39
74627;BME280;63132;52.268;5.192;2023-12-20T10:16:27;101265.97;;;10.36;68.04
74627;BME280;63132;52.268;5.192;2023-12-20T10:18:54;101263.22;;;10.47;68.38
74627;BME280;63132;52.268;5.192;2023-12-20T10:21:19;101257.25;;;10.34;68.66
74627;BME280;63132;52.268;5.192;2023-12-20T10:23:45;101243.06;;;10.46;68.08
74627;BME280;63132;52.268;5.192;2023-12-20T10:26:10;101249.81;;;10.67;67.61
74627;BME280;63132;52.268;5.192;2023-12-20T10:28:44;101262.84;;;10.52;67.63
74627;BME280;63132;52.268;5.192;2023-12-20T10:31:09;101253.38;;;10.78;66.81
74627;BME280;63132;52.268;5.192;2023-12-20T10:33:34;101253.78;;;10.59;66.85
74627;BME280;63132;52.268;5.192;2023-12-20T10:36:00;101241.09;;;10.72;66.84
74627;BME280;63132;52.268;5.192;2023-12-20T10:38:25;101253.78;;;10.87;66.64
74627;BME280;63132;52.268;5.192;2023-12-20T10:40:56;101245.47;;;10.73;67.09
74627;BME280;63132;52.268;5.192;2023-12-20T10:43:24;101252.16;;;10.58;67.48
74627;BME280;63132;52.268;5.192;2023-12-20T10:45:51;101241.88;;;10.62;67.25
74627;BME280;63132;52.268;5.192;2023-12-20T10:48:18;101246.63;;;10.58;67.59
74627;BME280;63132;52.268;5.192;2023-12-20T10:50:44;101234.00;;;10.67;67.50
74627;BME280;63132;52.268;5.192;2023-12-20T10:53:10;101224.09;;;10.84;66.40
74627;BME280;63132;52.268;5.192;2023-12-20T10:55:37;101238.34;;;11.11;66.04
74627;BME280;63132;52.268;5.192;2023-12-20T10:58:08;101229.19;;;11.43;64.97
74627;BME280;63132;52.268;5.192;2023-12-20T11:00:40;101239.50;;;11.21;63.65
74627;BME280;63132;52.268;5.192;2023-12-20T11:03:09;101235.16;;;11.23;63.35
74627;BME280;63132;52.268;5.192;2023-12-20T11:06:01;101239.13;;;11.33;62.77
74627;BME280;63132;52.268;5.192;2023-12-20T11:11:12;101222.06;;;11.34;63.34
74627;BME280;63132;52.268;5.192;2023-12-20T11:13:54;101230.81;;;11.08;62.84
74627;BME280;63132;52.268;5.192;2023-12-20T11:16:25;101226.47;;;11.03;63.37
74627;BME280;63132;52.268;5.192;2023-12-20T11:18:51;101223.28;;;10.94;64.13
74627;BME280;63132;52.268;5.192;2023-12-20T11:21:16;101211.81;;;10.78;64.38
74627;BME280;63132;52.268;5.192;2023-12-20T11:23:42;101219.72;;;11.12;63.98
74627;BME280;63132;52.268;5.192;2023-12-20T11:26:11;101211.38;;;11.22;63.31
74627;BME280;63132;52.268;5.192;2023-12-20T11:28:36;101211.00;;;11.27;63.77
74627;BME280;63132;52.268;5.192;2023-12-20T11:31:02;101222.47;;;11.40;63.52
74627;BME280;63132;52.268;5.192;2023-12-20T11:33:32;101214.16;;;11.40;63.41
74627;BME280;63132;52.268;5.192;2023-12-20T11:36:00;101211.38;;;11.22;63.32
74627;BME280;63132;52.268;5.192;2023-12-20T11:38:25;101204.25;;;11.28;63.28
74627;BME280;63132;52.268;5.192;2023-12-20T11:40:53;101211.75;;;11.42;63.59
74627;BME280;63132;52.268;5.192;2023-12-20T11:43:31;101197.94;;;11.06;64.03
74627;BME280;63132;52.268;5.192;2023-12-20T11:46:03;101188.81;;;11.24;64.26
74627;BME280;63132;52.268;5.192;2023-12-20T11:48:30;101184.06;;;11.21;64.06
74627;BME280;63132;52.268;5.192;2023-12-20T11:50:56;101191.63;;;11.02;64.58
74627;BME280;63132;52.268;5.192;2023-12-20T11:53:21;101184.13;;;10.96;65.71
74627;BME280;63132;52.268;5.192;2023-12-20T11:55:48;101183.31;;;10.99;66.60
74627;BME280;63132;52.268;5.192;2023-12-20T11:58:14;101183.72;;;10.97;66.19
74627;BME280;63132;52.268;5.192;2023-12-20T12:00:41;101181.34;;;10.99;65.89
74627;BME280;63132;52.268;5.192;2023-12-20T12:03:08;101188.09;;;10.84;66.27
74627;BME280;63132;52.268;5.192;2023-12-20T12:05:33;101178.56;;;10.78;66.44
74627;BME280;63132;52.268;5.192;2023-12-20T12:07:59;101191.66;;;10.74;66.88
74627;BME280;63132;52.268;5.192;2023-12-20T12:10:24;101192.03;;;10.94;66.62
74627;BME280;63132;52.268;5.192;2023-12-20T12:12:49;101190.84;;;10.98;66.02
74627;BME280;63132;52.268;5.192;2023-12-20T12:15:15;101201.50;;;11.18;65.68
74627;BME280;63132;52.268;5.192;2023-12-20T12:17:40;101189.25;;;11.08;65.70
74627;BME280;63132;52.268;5.192;2023-12-20T12:20:06;101183.69;;;11.12;65.34
74627;BME280;63132;52.268;5.192;2023-12-20T12:22:33;101164.31;;;10.97;65.72
74627;BME280;63132;52.268;5.192;2023-12-20T12:24:59;101170.63;;;11.16;65.56
74627;BME280;63132;52.268;5.192;2023-12-20T12:27:34;101166.63;;;11.27;65.26
74627;BME280;63132;52.268;5.192;2023-12-20T12:30:00;101150.38;;;11.40;65.51
74627;BME280;63132;52.268;5.192;2023-12-20T12:32:27;101148.81;;;11.25;65.79
74627;BME280;63132;52.268;5.192;2023-12-20T12:34:53;101148.81;;;11.25;65.93
74627;BME280;63132;52.268;5.192;2023-12-20T12:37:18;101144.06;;;11.25;66.32
74627;BME280;63132;52.268;5.192;2023-12-20T12:39:43;101143.66;;;11.27;65.50
74627;BME280;63132;52.268;5.192;2023-12-20T12:42:09;101135.41;;;11.05;65.97
74627;BME280;63132;52.268;5.192;2023-12-20T12:44:34;101142.56;;;10.92;66.68
74627;BME280;63132;52.268;5.192;2023-12-20T12:46:59;101149.66;;;11.04;66.92
74627;BME280;63132;52.268;5.192;2023-12-20T12:49:25;101156.00;;;11.04;66.76
74627;BME280;63132;52.268;5.192;2023-12-20T12:51:51;101144.94;;;10.90;67.23
74627;BME280;63132;52.268;5.192;2023-12-20T12:54:16;101139.41;;;10.90;66.98